Terminal Aerodrome Forecast
Issued by NWS Tiyan, Guam

Home | Current Version | Previous Version | Text Only | Print | Product List | Glossary On
Versions: 1 2 3 4 5 6 7 8 9 10 11 12 13 14 15 16 17 18 19 20 21 22 23 24 25 26 27 28 29 30 31 32 33 34 35 36 37
000
FTPQ31 PGUM 042210 AAO
TAFGUM
TAF AMD
PGUM 042210Z 0422/0524 28017G30KT 4SM RA SCT012 BKN030 OVC080
      TEMPO 0422/0502 1SM +SHRA BKN008 OVC020
     FM050200 26015G25KT P6SM -RA SCT014 BKN040 OVC100
     FM050600 23012G22KT P6SM -SHRA SCT016 BKN050 OVC120=

USA.gov is the U.S. government's official web portal to all federal, state and local government web resources and services.